UUOK

Details ICAO UUOK (URS)
Name KURSK
Region Russia
Timezone Europe/Moscow (UTC+3.0)
Plans Departing 74
Arriving 81
Stats Elevation 686 ft / 209 m (AMSL)
Location 51.750600° 36.295600°
Runways 1
Magnetic Variation 9.536° E
Sunrise 2021-01-19 05:32:16 UTC / 2021-01-19 08:32:16 Local
Sunset 2021-01-19 14:01:00 UTC / 2021-01-19 17:01:00 Local
Advertisement - Login to hide

Runways

ID Width Length Bearing (true/mag) Surface Threshold Overrun Markings Lighting
12 131 ft / 40 m 8,183 ft / 2,494 m 124.05° / 114.51° CONCRETE 0 ft / 0 m 0 ft / 0 m APP EDGE THRESHOLD MALS
30 131 ft / 40 m 8,183 ft / 2,494 m 304.07° / 294.54° CONCRETE 0 ft / 0 m 0 ft / 0 m APP EDGE THRESHOLD

Map

Weather


0- 5 10 15 20 25 30 35+ Temperature / °C

Clouds and Precipitation
Forecast for 2021-01-19 12:00 UTC. Updated 5 hours ago

Ground ~20,000 ft ~40,000 ft Winds

METAR

UUOK 191430Z 34003MPS 9000 -SN BKN048 M16/M20 Q1016 R30/410044 NOSIG RMK QFE743/0991

TAF

Not found

Frequencies

Tower 131.50 MHz START
Ground 120.60 MHz TAXIING
Approach 131.50 MHz KRUG
Warning: Do not use this data for real-world aviation or navigation. No guarantee of current accuracy is given.